createdAt,value
2022-11-17T00:01:45.736Z,14.77
2022-11-17T00:04:15.858Z,15.67
2022-11-17T00:06:44.872Z,13.70
2022-11-17T00:09:17.699Z,16.73
2022-11-17T00:12:03.822Z,11.93
2022-11-17T00:14:36.976Z,11.33
2022-11-17T00:17:07.040Z,11.17
2022-11-17T00:19:54.811Z,14.07
2022-11-17T00:22:23.629Z,11.97
2022-11-17T00:24:52.426Z,12.70
2022-11-17T00:27:21.180Z,7.73
2022-11-17T00:29:49.827Z,11.93
2022-11-17T00:32:36.660Z,8.17
2022-11-17T00:35:07.241Z,10.27
2022-11-17T00:37:37.163Z,10.60
2022-11-17T00:40:06.623Z,10.20
2022-11-17T00:42:35.332Z,9.77
2022-11-17T00:45:04.036Z,9.80
2022-11-17T00:47:33.122Z,11.43
2022-11-17T00:50:01.832Z,9.40
2022-11-17T00:52:32.036Z,8.47
2022-11-17T00:55:00.866Z,8.90
2022-11-17T00:57:29.633Z,8.77
2022-11-17T01:00:02.703Z,8.53
2022-11-17T01:02:31.574Z,7.70
2022-11-17T01:05:00.286Z,9.20
2022-11-17T01:07:29.034Z,7.77
2022-11-17T01:09:59.267Z,9.80
2022-11-17T01:12:27.964Z,11.90
2022-11-17T01:14:56.604Z,6.47
2022-11-17T01:17:25.408Z,14.63
2022-11-17T01:19:54.016Z,6.80
2022-11-17T01:22:22.694Z,6.60
2022-11-17T01:24:51.391Z,7.23
2022-11-17T01:27:21.751Z,6.77
2022-11-17T01:29:50.430Z,6.73
2022-11-17T01:32:19.122Z,7.37
2022-11-17T01:34:48.423Z,8.93
2022-11-17T01:37:23.453Z,13.63
2022-11-17T01:39:52.123Z,8.97
2022-11-17T01:42:23.065Z,8.70
2022-11-17T01:44:56.576Z,8.27
2022-11-17T01:47:27.604Z,5.87
2022-11-17T01:49:57.432Z,5.67
2022-11-17T01:52:26.083Z,7.67
2022-11-17T01:54:55.006Z,8.27
2022-11-17T01:57:26.446Z,6.90
2022-11-17T01:59:56.159Z,8.53
2022-11-17T02:02:24.883Z,6.47
2022-11-17T02:04:56.156Z,5.93
2022-11-17T02:07:27.333Z,7.17
2022-11-17T02:09:56.105Z,6.80
2022-11-17T02:12:27.453Z,6.50
2022-11-17T02:14:56.291Z,5.60
2022-11-17T02:17:25.358Z,8.43
2022-11-17T02:19:57.956Z,9.30
2022-11-17T02:22:40.231Z,6.57
2022-11-17T02:25:28.736Z,6.20
2022-11-17T02:28:12.635Z,6.93
2022-11-17T02:30:43.299Z,6.23
2022-11-17T02:33:14.017Z,5.43
2022-11-17T02:35:44.741Z,6.60
2022-11-17T02:38:19.098Z,7.90
2022-11-17T02:40:49.931Z,6.57
2022-11-17T02:43:38.289Z,6.60
2022-11-17T02:46:08.545Z,5.70
2022-11-17T02:48:39.066Z,6.43
2022-11-17T02:51:09.192Z,5.40
2022-11-17T02:53:38.283Z,6.33
2022-11-17T02:56:08.269Z,4.93
2022-11-17T02:58:38.421Z,6.93
2022-11-17T03:01:24.381Z,4.80
2022-11-17T03:04:02.011Z,6.97
2022-11-17T03:06:36.116Z,5.60
2022-11-17T03:09:12.276Z,5.73
2022-11-17T03:11:50.955Z,5.27
2022-11-17T03:14:25.900Z,5.13
2022-11-17T03:16:58.268Z,5.73
2022-11-17T03:19:28.707Z,5.70
2022-11-17T03:22:00.430Z,5.07
2022-11-17T03:24:30.557Z,6.77
2022-11-17T03:27:02.316Z,5.60
2022-11-17T03:29:33.083Z,4.93
2022-11-17T03:32:03.494Z,4.57
2022-11-17T03:34:35.340Z,5.27
2022-11-17T03:37:04.871Z,5.20
2022-11-17T03:39:34.060Z,5.13
2022-11-17T03:42:04.282Z,4.53
2022-11-17T03:44:35.270Z,4.47
2022-11-17T03:47:04.048Z,4.90
2022-11-17T03:49:36.835Z,5.93
2022-11-17T03:52:05.735Z,5.47
2022-11-17T03:54:34.456Z,6.47
2022-11-17T03:57:05.921Z,4.70
2022-11-17T03:59:39.652Z,5.73
2022-11-17T04:02:08.353Z,5.03
2022-11-17T04:04:50.827Z,4.70
2022-11-17T04:07:19.478Z,7.00
2022-11-17T04:09:48.542Z,4.83
2022-11-17T04:12:34.461Z,4.20
2022-11-17T04:15:21.733Z,4.83
2022-11-17T04:17:50.491Z,5.17
2022-11-17T04:20:19.160Z,5.10
2022-11-17T04:23:07.195Z,5.03
2022-11-17T04:25:53.250Z,4.20
2022-11-17T04:28:40.208Z,4.40
2022-11-17T04:31:13.820Z,3.90
2022-11-17T04:33:43.211Z,3.87
2022-11-17T04:54:03.852Z,5.43
2022-11-17T04:56:32.076Z,6.23
2022-11-17T04:59:00.258Z,5.20
2022-11-17T05:01:28.754Z,5.50
2022-11-17T05:03:57.981Z,6.23
2022-11-17T05:06:27.063Z,7.17
2022-11-17T05:08:56.659Z,7.20
2022-11-17T05:11:44.336Z,7.63
2022-11-17T05:14:12.714Z,9.13
2022-11-17T05:16:58.880Z,10.70
2022-11-17T05:19:28.125Z,9.43
2022-11-17T05:21:56.430Z,10.47
2022-11-17T05:24:23.768Z,8.03
2022-11-17T05:26:53.578Z,7.70
2022-11-17T05:29:22.457Z,6.80
2022-11-17T05:31:50.779Z,6.47
2022-11-17T05:34:19.035Z,7.13
2022-11-17T05:36:47.580Z,5.10
2022-11-17T05:39:16.408Z,5.93
2022-11-17T05:41:44.605Z,7.10
2022-11-17T05:44:14.220Z,5.87
2022-11-17T05:46:42.359Z,6.20
2022-11-17T05:49:10.595Z,6.70
2022-11-17T05:51:38.775Z,4.40
2022-11-17T05:54:07.073Z,5.20
2022-11-17T05:56:37.077Z,6.20
2022-11-17T05:59:12.094Z,7.70
2022-11-17T06:01:43.343Z,5.90
2022-11-17T06:04:11.579Z,6.43
2022-11-17T06:06:39.797Z,5.07
2022-11-17T06:09:08.013Z,4.47
2022-11-17T06:11:36.220Z,4.23
2022-11-17T06:14:04.438Z,4.90
2022-11-17T06:16:34.189Z,3.53
2022-11-17T06:19:05.031Z,6.00
2022-11-17T06:21:49.461Z,4.67
2022-11-17T06:24:21.482Z,5.10
2022-11-17T06:26:49.676Z,5.57
2022-11-17T06:29:17.881Z,4.37
2022-11-17T06:31:46.148Z,5.30
2022-11-17T06:34:15.781Z,3.57
2022-11-17T06:36:44.012Z,4.00
2022-11-17T06:39:12.169Z,6.43
2022-11-17T06:41:40.938Z,5.33
2022-11-17T06:44:09.186Z,4.00
2022-11-17T06:46:39.094Z,5.47
2022-11-17T06:49:07.760Z,6.87
2022-11-17T06:51:42.292Z,4.90
2022-11-17T06:54:14.819Z,4.97
2022-11-17T06:56:43.802Z,5.87
2022-11-17T06:59:12.082Z,6.27
2022-11-17T07:01:40.326Z,4.93
2022-11-17T07:04:09.053Z,8.53
2022-11-17T07:06:39.042Z,8.13
2022-11-17T07:09:07.400Z,5.70
2022-11-17T07:11:35.816Z,5.50
2022-11-17T07:14:04.194Z,7.60
2022-11-17T07:16:32.772Z,5.53
2022-11-17T07:19:03.637Z,9.87
2022-11-17T07:21:32.186Z,6.07
2022-11-17T07:24:02.060Z,7.67
2022-11-17T07:26:30.438Z,9.63
2022-11-17T07:28:58.784Z,8.87
2022-11-17T07:31:27.127Z,5.27
2022-11-17T07:33:55.711Z,6.97
2022-11-17T07:36:24.054Z,7.23
2022-11-17T07:38:52.406Z,8.13
2022-11-17T07:41:22.200Z,6.43
2022-11-17T07:43:50.568Z,8.73
2022-11-17T07:46:18.874Z,7.80
2022-11-17T07:48:47.207Z,6.60
2022-11-17T07:51:17.263Z,5.33
2022-11-17T07:53:45.650Z,6.20
2022-11-17T07:56:14.140Z,7.00
2022-11-17T07:58:43.845Z,6.97
2022-11-17T08:01:14.763Z,6.50
2022-11-17T08:03:43.260Z,7.17
2022-11-17T08:06:11.708Z,6.30
2022-11-17T08:08:40.259Z,6.73
2022-11-17T08:11:09.542Z,4.93
2022-11-17T08:13:38.123Z,8.37
2022-11-17T08:16:08.490Z,4.67
2022-11-17T08:18:37.166Z,6.50
2022-11-17T08:21:06.578Z,4.40
2022-11-17T08:23:34.982Z,4.37
2022-11-17T08:26:03.675Z,5.13
2022-11-17T08:28:32.045Z,4.53
2022-11-17T08:31:02.022Z,5.33
2022-11-17T08:33:31.900Z,7.00
2022-11-17T08:36:00.302Z,5.77
2022-11-17T08:38:29.315Z,4.30
2022-11-17T08:40:57.878Z,4.53
2022-11-17T08:43:26.263Z,4.00
2022-11-17T08:45:54.630Z,4.27
2022-11-17T08:48:22.941Z,9.73
2022-11-17T08:50:52.717Z,4.83
2022-11-17T08:53:21.850Z,5.00
2022-11-17T08:55:50.257Z,4.63
2022-11-17T08:58:18.645Z,5.40
2022-11-17T09:00:47.833Z,4.63
2022-11-17T09:03:16.307Z,4.43
2022-11-17T09:05:47.106Z,4.40
2022-11-17T09:08:56.027Z,5.57
2022-11-17T09:11:06.033Z,4.00
2022-11-17T09:13:34.357Z,5.50
2022-11-17T09:16:03.638Z,4.43
2022-11-17T09:18:32.068Z,4.57
2022-11-17T09:21:02.007Z,5.20
2022-11-17T09:23:32.457Z,3.63
2022-11-17T09:26:00.942Z,3.90
2022-11-17T09:28:29.239Z,4.07
2022-11-17T09:30:59.206Z,4.57
2022-11-17T09:33:29.607Z,4.00
2022-11-17T09:35:58.675Z,4.20
2022-11-17T09:38:27.256Z,4.47
2022-11-17T09:40:58.565Z,3.30
2022-11-17T09:43:30.164Z,5.17
2022-11-17T09:46:07.195Z,2.97
2022-11-17T09:48:42.048Z,4.60
2022-11-17T09:51:12.842Z,3.43
2022-11-17T09:53:44.691Z,3.27
2022-11-17T09:56:14.817Z,4.30
2022-11-17T09:58:46.087Z,3.67
2022-11-17T10:01:15.067Z,3.40
2022-11-17T10:03:46.146Z,3.53
2022-11-17T10:06:17.457Z,3.57
2022-11-17T10:08:49.571Z,3.00
2022-11-17T10:11:34.202Z,3.63
2022-11-17T10:14:13.107Z,3.10
2022-11-17T10:16:43.388Z,3.27
2022-11-17T10:19:18.203Z,3.00
2022-11-17T10:21:46.693Z,3.43
2022-11-17T10:24:37.015Z,2.90
2022-11-17T10:27:07.714Z,4.17
2022-11-17T10:29:36.095Z,2.90
2022-11-17T10:32:05.186Z,3.23
2022-11-17T10:34:40.663Z,3.20
2022-11-17T10:37:24.558Z,2.90
2022-11-17T10:39:52.934Z,3.40
2022-11-17T10:42:27.835Z,2.60
2022-11-17T10:44:58.095Z,2.13
2022-11-17T10:47:28.460Z,2.20
2022-11-17T10:50:16.537Z,2.50
2022-11-17T10:52:44.925Z,2.53
2022-11-17T10:55:27.954Z,2.20
2022-11-17T10:58:00.213Z,3.53
2022-11-17T11:00:31.053Z,2.00
2022-11-17T11:03:07.206Z,1.90
2022-11-17T11:05:35.682Z,2.13
2022-11-17T11:08:16.193Z,1.70
2022-11-17T11:10:44.735Z,2.20
2022-11-17T11:13:17.747Z,1.77
2022-11-17T11:15:46.054Z,1.90
2022-11-17T11:18:14.843Z,1.60
2022-11-17T11:20:46.544Z,1.87
2022-11-17T11:23:18.000Z,2.00
2022-11-17T11:25:49.277Z,1.70
2022-11-17T11:28:25.325Z,2.07
2022-11-17T11:30:59.086Z,2.23
2022-11-17T11:33:33.407Z,2.77
2022-11-17T11:36:30.307Z,2.23
2022-11-17T11:39:01.010Z,1.90
2022-11-17T11:41:47.913Z,1.97
2022-11-17T11:44:35.524Z,1.80
2022-11-17T11:47:07.322Z,2.40
2022-11-17T11:49:38.120Z,1.80
2022-11-17T11:52:11.359Z,1.87
2022-11-17T11:54:46.343Z,1.87
2022-11-17T11:57:19.407Z,1.83
2022-11-17T11:59:51.707Z,2.67
2022-11-17T12:02:25.251Z,1.87
2022-11-17T12:04:58.087Z,1.70
2022-11-17T12:07:30.801Z,1.90
2022-11-17T12:10:01.910Z,2.53
2022-11-17T12:12:32.015Z,2.67
2022-11-17T12:15:38.291Z,1.70
2022-11-17T12:18:11.583Z,1.70
2022-11-17T12:20:58.357Z,2.00
2022-11-17T12:23:51.043Z,2.27
2022-11-17T12:26:26.904Z,2.10
2022-11-17T12:29:34.261Z,2.07
2022-11-17T12:32:04.322Z,2.27
2022-11-17T12:34:33.891Z,2.33
2022-11-17T12:37:27.604Z,2.60
2022-11-17T12:40:03.650Z,2.87
2022-11-17T12:42:32.319Z,3.47
2022-11-17T12:45:07.913Z,2.53
2022-11-17T12:47:38.760Z,2.50
2022-11-17T12:50:33.442Z,2.93
2022-11-17T12:53:32.925Z,2.70
2022-11-17T12:56:36.929Z,3.67
2022-11-17T12:59:24.285Z,2.30
2022-11-17T13:01:55.559Z,3.30
2022-11-17T13:04:27.684Z,2.80
2022-11-17T13:07:02.788Z,2.87
2022-11-17T13:09:31.482Z,2.93
2022-11-17T13:12:01.042Z,2.10
2022-11-17T13:14:29.351Z,2.60
2022-11-17T13:16:57.622Z,2.20
2022-11-17T13:19:45.888Z,1.70
2022-11-17T13:22:16.066Z,2.20
2022-11-17T13:24:45.134Z,1.43
2022-11-17T13:27:20.279Z,1.63
2022-11-17T13:29:48.592Z,3.23
2022-11-17T13:32:18.604Z,2.30
2022-11-17T13:34:50.735Z,2.77
2022-11-17T13:37:20.323Z,2.70
2022-11-17T13:39:59.234Z,2.00
2022-11-17T13:42:29.241Z,1.80
2022-11-17T13:44:58.665Z,2.20
2022-11-17T13:47:43.415Z,1.90
2022-11-17T13:50:40.669Z,2.17
2022-11-17T13:53:25.701Z,1.80
2022-11-17T13:55:54.154Z,1.67
2022-11-17T13:58:31.736Z,1.77
2022-11-17T14:01:00.186Z,2.10
2022-11-17T14:03:36.824Z,2.13
2022-11-17T14:06:07.867Z,3.60
2022-11-17T14:08:36.316Z,1.90
2022-11-17T14:11:21.688Z,1.90
2022-11-17T14:13:50.721Z,2.20
2022-11-17T14:16:24.333Z,2.00
2022-11-17T14:19:03.113Z,2.00
2022-11-17T14:21:32.921Z,2.27
2022-11-17T14:24:06.950Z,2.27
2022-11-17T14:26:35.326Z,2.97
2022-11-17T14:29:03.871Z,2.27
2022-11-17T14:31:32.310Z,2.57
2022-11-17T14:34:01.001Z,4.20
2022-11-17T14:36:29.639Z,2.83
2022-11-17T14:38:59.398Z,2.47
2022-11-17T14:41:27.759Z,2.70
2022-11-17T14:43:56.041Z,2.20
2022-11-17T14:46:25.182Z,2.40
2022-11-17T14:48:53.659Z,2.20
2022-11-17T14:51:22.614Z,3.60
2022-11-17T14:53:51.004Z,2.67
2022-11-17T14:56:21.385Z,1.97
2022-11-17T14:58:54.259Z,3.23
2022-11-17T15:01:24.458Z,2.20
2022-11-17T15:03:53.371Z,2.20
2022-11-17T15:06:21.833Z,2.10
2022-11-17T15:08:54.085Z,1.60
2022-11-17T15:11:23.910Z,2.10
2022-11-17T15:13:52.182Z,2.27
2022-11-17T15:16:20.512Z,2.30
2022-11-17T15:18:49.232Z,3.50
2022-11-17T15:21:17.566Z,2.07
2022-11-17T15:23:46.537Z,2.10
2022-11-17T15:26:15.711Z,1.70
2022-11-17T15:28:45.580Z,1.60
2022-11-17T15:31:14.981Z,1.63
2022-11-17T15:33:43.786Z,1.83
2022-11-17T15:36:13.305Z,1.57
2022-11-17T15:38:41.730Z,3.57
2022-11-17T15:41:10.785Z,1.73
2022-11-17T15:43:40.698Z,1.40
2022-11-17T15:46:12.552Z,1.50
2022-11-17T15:48:43.110Z,1.30
2022-11-17T15:51:12.137Z,1.60
2022-11-17T15:53:40.866Z,2.10
2022-11-17T15:56:10.444Z,1.60
2022-11-17T15:58:39.971Z,1.70
2022-11-17T16:01:12.369Z,1.77
2022-11-17T16:03:41.554Z,3.10
2022-11-17T16:06:10.660Z,2.23
2022-11-17T16:08:39.807Z,1.93
2022-11-17T16:11:09.201Z,1.90
2022-11-17T16:13:38.780Z,2.50
2022-11-17T16:16:09.296Z,1.80
2022-11-17T16:18:40.337Z,3.80
2022-11-17T16:21:11.266Z,4.57
2022-11-17T16:23:41.802Z,8.13
2022-11-17T16:26:11.561Z,2.70
2022-11-17T16:28:41.544Z,2.47
2022-11-17T16:31:15.732Z,2.40
2022-11-17T16:33:50.517Z,1.97
2022-11-17T16:36:20.765Z,3.63
2022-11-17T16:39:02.156Z,2.20
2022-11-17T16:41:33.918Z,2.40
2022-11-17T16:44:03.792Z,2.50
2022-11-17T16:46:33.894Z,2.57
2022-11-17T16:49:05.805Z,2.57
2022-11-17T16:51:35.779Z,4.70
2022-11-17T16:54:06.669Z,3.50
2022-11-17T16:56:36.792Z,5.40
2022-11-17T16:59:06.580Z,4.63
2022-11-17T17:01:36.449Z,3.37
2022-11-17T17:04:08.447Z,2.50
2022-11-17T17:06:39.057Z,2.40
2022-11-17T17:09:09.534Z,2.93
2022-11-17T17:11:39.412Z,3.00
2022-11-17T17:14:09.895Z,3.40
2022-11-17T17:16:40.481Z,2.90
2022-11-17T17:19:12.394Z,2.23
2022-11-17T17:21:42.541Z,4.17
2022-11-17T17:24:12.255Z,3.00
2022-11-17T17:26:42.209Z,5.73
2022-11-17T17:29:12.754Z,2.87
2022-11-17T17:31:43.098Z,4.63
2022-11-17T17:34:14.636Z,2.43
2022-11-17T17:36:44.498Z,2.83
2022-11-17T17:39:16.194Z,4.20
2022-11-17T17:41:46.424Z,4.37
2022-11-17T17:44:17.352Z,5.53
2022-11-17T17:46:47.162Z,5.63
2022-11-17T17:49:19.398Z,3.60
2022-11-17T17:51:50.090Z,4.60
2022-11-17T17:54:20.751Z,3.50
2022-11-17T17:56:50.637Z,3.07
2022-11-17T17:59:20.509Z,4.53
2022-11-17T18:01:50.260Z,3.03
2022-11-17T18:04:21.602Z,3.63
2022-11-17T18:06:51.779Z,3.83
2022-11-17T18:09:21.589Z,3.37
2022-11-17T18:11:51.515Z,4.10
2022-11-17T18:14:24.966Z,3.13
2022-11-17T18:16:55.219Z,3.53
2022-11-17T18:19:32.991Z,5.03
2022-11-17T18:22:04.689Z,3.63
2022-11-17T18:24:35.493Z,6.27
2022-11-17T18:27:05.450Z,3.60
2022-11-17T18:29:35.306Z,4.10
2022-11-17T18:32:05.396Z,4.53
2022-11-17T18:34:37.114Z,3.60
2022-11-17T18:37:06.896Z,3.93
2022-11-17T18:39:36.723Z,4.20
2022-11-17T18:42:06.688Z,4.03
2022-11-17T18:44:38.004Z,3.47
2022-11-17T18:47:08.339Z,4.07
2022-11-17T18:49:39.988Z,4.40
2022-11-17T18:52:10.243Z,4.90
2022-11-17T18:54:39.957Z,4.83
2022-11-17T18:57:09.627Z,3.90
2022-11-17T18:59:39.380Z,4.20
2022-11-17T19:02:10.667Z,3.97
2022-11-17T19:04:42.224Z,3.40
2022-11-17T19:07:12.421Z,3.33
2022-11-17T19:09:42.305Z,3.40
2022-11-17T19:12:12.960Z,3.93
2022-11-17T19:14:43.036Z,4.77
2022-11-17T19:17:12.936Z,4.50
2022-11-17T19:19:44.335Z,3.60
2022-11-17T19:22:16.883Z,4.10
2022-11-17T19:24:46.699Z,5.07
2022-11-17T19:27:16.498Z,4.57
2022-11-17T19:29:46.711Z,4.27
2022-11-17T19:32:16.583Z,3.27
2022-11-17T19:34:48.071Z,3.50
2022-11-17T19:37:17.803Z,3.40
2022-11-17T19:39:47.968Z,3.13
2022-11-17T19:42:17.698Z,3.50
2022-11-17T19:44:47.736Z,4.33
2022-11-17T19:47:18.852Z,3.70
2022-11-17T19:49:50.030Z,3.10
2022-11-17T19:52:19.838Z,3.83
2022-11-17T19:54:50.093Z,3.93
2022-11-17T19:57:20.118Z,3.80
2022-11-17T19:59:50.965Z,3.50
2022-11-17T20:02:19.517Z,3.70
2022-11-17T20:04:49.198Z,3.73
2022-11-17T20:07:17.574Z,4.83
2022-11-17T20:09:46.653Z,4.63
2022-11-17T20:12:15.013Z,4.77
2022-11-17T20:14:43.332Z,3.50
2022-11-17T20:17:11.547Z,4.13
2022-11-17T20:19:39.809Z,3.50
2022-11-17T20:22:09.425Z,6.93
2022-11-17T20:24:37.889Z,5.33
2022-11-17T20:27:06.221Z,4.73
2022-11-17T20:29:34.479Z,4.00
2022-11-17T20:32:02.732Z,3.73
2022-11-17T20:34:30.944Z,3.47
2022-11-17T20:36:59.482Z,4.03
2022-11-17T20:39:29.129Z,3.60
2022-11-17T20:41:57.364Z,4.73
2022-11-17T20:44:25.564Z,5.37
2022-11-17T20:46:54.977Z,7.20
2022-11-17T20:49:23.270Z,4.77
2022-11-17T20:51:51.744Z,3.57
2022-11-17T20:54:19.935Z,4.40
2022-11-17T20:56:49.605Z,3.77
2022-11-17T20:59:20.246Z,3.40
2022-11-17T21:01:49.343Z,4.77
2022-11-17T21:04:17.841Z,3.50
2022-11-17T21:06:46.038Z,3.23
2022-11-17T21:09:14.710Z,3.20
2022-11-17T21:11:57.876Z,2.60
2022-11-17T21:14:27.813Z,3.83
2022-11-17T21:16:57.542Z,3.03
2022-11-17T21:19:26.077Z,4.23
2022-11-17T21:21:54.655Z,2.00
2022-11-17T21:24:23.005Z,2.37
2022-11-17T21:26:51.867Z,2.10
2022-11-17T21:29:20.229Z,3.93
2022-11-17T21:31:50.362Z,3.27
2022-11-17T21:34:18.811Z,3.37
2022-11-17T21:36:47.088Z,2.57
2022-11-17T21:39:18.459Z,2.50
2022-11-17T21:41:47.040Z,2.20
2022-11-17T21:44:15.494Z,3.23
2022-11-17T21:46:43.944Z,2.00
2022-11-17T21:49:13.812Z,2.00
2022-11-17T21:51:42.430Z,4.87
2022-11-17T21:54:10.978Z,2.40
2022-11-17T21:56:40.322Z,3.60
2022-11-17T21:59:11.842Z,3.27
2022-11-17T22:01:40.129Z,3.53
2022-11-17T22:04:08.368Z,3.80
2022-11-17T22:06:38.898Z,5.90
2022-11-17T22:09:07.095Z,4.10
2022-11-17T22:11:38.832Z,2.93
2022-11-17T22:14:12.248Z,3.13
2022-11-17T22:16:41.605Z,4.00
2022-11-17T22:19:10.062Z,3.27
2022-11-17T22:21:39.807Z,3.93
2022-11-17T22:24:09.459Z,2.93
2022-11-17T22:26:38.584Z,3.27
2022-11-17T22:29:07.190Z,4.80
2022-11-17T22:31:35.518Z,3.40
2022-11-17T22:34:03.698Z,6.00
2022-11-17T22:36:32.385Z,3.10
2022-11-17T22:39:02.237Z,6.37
2022-11-17T22:41:30.470Z,3.40
2022-11-17T22:43:58.845Z,3.67
2022-11-17T22:46:27.905Z,3.67
2022-11-17T22:48:56.192Z,4.37
2022-11-17T22:51:42.596Z,3.60
2022-11-17T22:54:12.888Z,4.73
2022-11-17T22:56:41.125Z,4.50
2022-11-17T22:59:09.600Z,3.70
2022-11-17T23:01:37.904Z,5.57
2022-11-17T23:04:06.885Z,4.00
2022-11-17T23:06:35.560Z,4.23
2022-11-17T23:09:03.976Z,4.33
2022-11-17T23:11:38.168Z,4.77
2022-11-17T23:14:07.198Z,4.50
2022-11-17T23:16:35.469Z,5.23
2022-11-17T23:19:03.706Z,4.80
2022-11-17T23:21:32.193Z,5.20
2022-11-17T23:24:00.410Z,4.70
2022-11-17T23:26:28.774Z,5.33
2022-11-17T23:28:58.392Z,4.13
2022-11-17T23:31:28.012Z,6.40
2022-11-17T23:33:56.501Z,4.03
2022-11-17T23:36:24.742Z,5.33
2022-11-17T23:38:53.219Z,4.80
2022-11-17T23:41:21.587Z,3.90
2022-11-17T23:43:50.905Z,4.20
2022-11-17T23:46:21.203Z,4.37
2022-11-17T23:48:49.733Z,3.17
2022-11-17T23:51:19.418Z,4.10
2022-11-17T23:53:47.780Z,4.27
2022-11-17T23:56:16.071Z,4.03
2022-11-17T23:58:44.633Z,3.70
